Time;durP1;ratioP1;P1;durP2;ratioP2;P2;SDS_P1;SDS_P2;PMS_P1;PMS_P2;Temp;Humidity;BMP_temperature;BMP_pressure;BME280_temperature;BME280_humidity;BME280_pressure;Samples;Min_cycle;Max_cycle;Signal;HPM_P1;HPM_P2
2021/06/25 00:00:31;;;;;;;21.23;13.37;;;;;;;25.33;76.48;101162.78;4972949;28;20207;-80
2021/06/25 00:02:57;;;;;;;25.60;13.07;;;;;;;21.71;76.06;100610.00;4956736;28;20206;-88
2021/06/25 00:05:22;;;;;;;28.73;12.83;;;;;;;23.42;75.90;100879.31;4988613;28;20214;-80
2021/06/25 00:07:48;;;;;;;31.63;14.80;;;;;;;25.17;76.21;101155.06;4956592;28;20175;-80
2021/06/25 00:10:13;;;;;;;30.27;13.93;;;;;;;24.76;76.27;101100.28;4956582;28;20167;-88
2021/06/25 00:12:39;;;;;;;30.47;14.27;;;;;;;23.14;76.27;100855.88;4956710;28;20647;-87
2021/06/25 00:15:06;;;;;;;31.23;15.20;;;;;;;24.56;76.41;101063.72;4972525;28;20214;-88
2021/06/25 00:17:31;;;;;;;30.27;14.43;;;;;;;23.77;76.80;100994.78;4972630;28;20202;-87
2021/06/25 00:19:57;;;;;;;34.50;15.27;;;;;;;24.51;76.97;101083.59;4988278;28;20241;-81
2021/06/25 00:22:24;;;;;;;32.73;14.70;;;;;;;21.65;76.76;100639.44;4956616;28;20167;-80
2021/06/25 00:24:49;;;;;;;28.60;14.80;;;;;;;23.65;77.24;100945.16;4956607;28;20207;-88
2021/06/25 00:27:15;;;;;;;28.00;14.00;;;;;;;23.86;77.40;100957.75;4956141;28;20190;-80
2021/06/25 00:29:40;;;;;;;28.37;12.53;;;;;;;23.73;77.30;100932.78;4956409;28;20162;-88
2021/06/25 00:32:06;;;;;;;29.10;13.57;;;;;;;24.41;77.22;101079.47;4972074;28;20194;-87
2021/06/25 00:34:32;;;;;;;26.97;13.40;;;;;;;24.53;77.51;101078.94;4956718;28;20177;-81
2021/06/25 00:36:57;;;;;;;29.87;14.07;;;;;;;24.63;77.66;101117.09;4956606;28;20183;-88
2021/06/25 00:39:23;;;;;;;30.23;13.63;;;;;;;24.13;77.56;101039.06;4956047;28;20218;-81
2021/06/25 00:41:48;;;;;;;31.30;14.03;;;;;;;21.49;77.64;100643.72;4956454;28;20164;-88
2021/06/25 00:44:18;;;;;;;30.83;14.23;;;;;;;22.08;77.83;100743.22;4956556;28;20178;-86
2021/06/25 00:46:44;;;;;;;22.40;13.53;;;;;;;22.97;78.15;100889.03;4972502;28;20194;-83
2021/06/25 00:49:10;;;;;;;31.07;16.60;;;;;;;22.79;78.94;100821.69;4955820;28;20179;-80
2021/06/25 00:51:35;;;;;;;31.73;17.57;;;;;;;21.50;79.44;100616.31;4971947;28;20171;-87
2021/06/25 00:54:01;;;;;;;27.30;17.07;;;;;;;21.97;79.38;100691.59;4955927;28;20174;-80
2021/06/25 00:56:27;;;;;;;28.90;15.63;;;;;;;24.25;79.60;101040.63;4956008;28;20164;-88
2021/06/25 00:58:52;;;;;;;31.23;16.50;;;;;;;24.31;79.76;101064.78;4955554;28;20219;-88
2021/06/25 01:01:18;;;;;;;27.13;12.03;;;;;;;23.31;77.98;100918.13;4971761;28;20179;-80
2021/06/25 01:03:43;;;;;;;24.63;12.47;;;;;;;23.07;77.71;100900.84;4971723;28;20207;-88
2021/06/25 01:06:09;;;;;;;30.67;15.93;;;;;;;24.53;79.39;101146.94;4955768;28;20194;-80
2021/06/25 01:08:39;;;;;;;35.50;18.10;;;;;;;23.98;81.02;101106.50;4939720;28;20182;-88
2021/06/25 01:11:04;;;;;;;29.20;13.33;;;;;;;21.95;79.09;100802.16;4955518;28;20293;-88
2021/06/25 01:13:30;;;;;;;30.47;13.63;;;;;;;24.25;78.51;101165.22;4955813;28;20627;-84
2021/06/25 01:15:56;;;;;;;30.43;13.97;;;;;;;21.06;78.01;100644.28;4955426;28;20225;-88
2021/06/25 01:18:21;;;;;;;26.53;13.27;;;;;;;23.97;77.77;101082.31;4955227;28;20239;-88
2021/06/25 01:20:47;;;;;;;27.77;12.43;;;;;;;24.27;77.09;101166.25;4955627;28;20175;-80
2021/06/25 01:23:12;;;;;;;28.80;12.70;;;;;;;21.96;76.29;100800.13;4955658;28;20180;-81
2021/06/25 01:25:39;;;;;;;22.30;11.93;;;;;;;20.91;76.17;100633.19;4987559;28;20249;-88
2021/06/25 01:28:06;;;;;;;24.77;12.83;;;;;;;23.98;76.02;101121.44;4955677;28;20174;-80
2021/06/25 01:30:34;;;;;;;25.97;12.57;;;;;;;23.79;76.00;101086.38;4971373;28;20187;-88
2021/06/25 01:33:00;;;;;;;22.87;12.17;;;;;;;23.49;76.04;101050.59;4971122;28;20262;-88
2021/06/25 01:35:25;;;;;;;26.90;12.23;;;;;;;21.70;76.17;100855.88;4955289;28;20301;-81
2021/06/25 01:37:51;;;;;;;21.33;11.93;;;;;;;22.65;76.51;100974.47;4955107;28;20638;-88
2021/06/25 01:40:17;;;;;;;30.43;12.13;;;;;;;21.85;76.39;100843.13;4955046;28;20226;-80
2021/06/25 01:42:44;;;;;;;27.30;12.67;;;;;;;23.03;76.70;101033.94;4954791;28;20211;-88
2021/06/25 01:45:10;;;;;;;28.13;13.67;;;;;;;20.70;76.70;100667.56;4970584;28;20190;-87
2021/06/25 01:47:36;;;;;;;27.47;12.47;;;;;;;20.45;76.79;100629.75;4971414;28;20171;-80
2021/06/25 01:50:09;;;;;;;25.93;12.60;;;;;;;23.28;77.14;101043.59;4955354;28;20179;-80
2021/06/25 01:52:35;;;;;;;26.73;13.60;;;;;;;23.81;77.05;101126.28;4955855;28;20242;-87
2021/06/25 01:55:00;;;;;;;21.47;12.40;;;;;;;23.48;77.25;101078.09;4971100;28;20179;-86
2021/06/25 01:57:26;;;;;;;26.70;13.03;;;;;;;23.38;77.23;101067.53;4971053;28;20179;-88
2021/06/25 01:59:51;;;;;;;26.60;12.80;;;;;;;21.98;77.16;100846.31;4954643;28;20277;-88
2021/06/25 02:02:17;;;;;;;27.20;12.97;;;;;;;23.18;77.37;101031.72;4954687;28;20650;-80
2021/06/25 02:04:42;;;;;;;24.13;13.17;;;;;;;23.47;77.45;101079.38;4954661;28;20175;-88
2021/06/25 02:07:08;;;;;;;32.93;13.03;;;;;;;22.35;77.60;100942.97;4954748;28;20640;-80
2021/06/25 02:09:34;;;;;;;28.37;13.53;;;;;;;23.06;77.34;101035.78;4970748;28;20179;-83
2021/06/25 02:11:59;;;;;;;31.43;13.27;;;;;;;22.55;77.63;100962.63;4954663;28;20172;-87
2021/06/25 02:14:25;;;;;;;24.43;12.67;;;;;;;21.80;77.61;100820.56;4970754;28;20639;-86
2021/06/25 02:16:51;;;;;;;26.10;12.80;;;;;;;23.17;77.67;101037.84;4954542;28;20200;-88
2021/06/25 02:19:16;;;;;;;20.93;12.27;;;;;;;20.44;77.38;100625.41;4954345;28;20242;-87
2021/06/25 02:21:42;;;;;;;26.43;13.70;;;;;;;21.53;77.43;100827.53;4954330;28;20187;-80
2021/06/25 02:24:08;;;;;;;35.10;12.90;;;;;;;20.26;76.77;100616.56;4970290;28;20206;-81
2021/06/25 02:26:33;;;;;;;28.33;13.03;;;;;;;20.26;76.58;100620.13;4954323;28;20207;-87
2021/06/25 02:28:59;;;;;;;40.77;13.67;;;;;;;23.28;76.48;101052.06;4954434;28;20262;-80
2021/06/25 02:31:24;;;;;;;30.03;12.00;;;;;;;20.40;75.93;100660.66;4954278;28;20187;-88
2021/06/25 02:33:50;;;;;;;24.87;11.00;;;;;;;19.99;75.53;100589.69;4954278;28;20182;-87
2021/06/25 02:36:15;;;;;;;27.13;12.27;;;;;;;22.16;76.15;100939.00;4954447;28;20179;-88
2021/06/25 02:38:41;;;;;;;30.33;12.47;;;;;;;22.51;76.54;101014.97;4953960;28;20257;-88
2021/06/25 02:41:06;;;;;;;29.30;13.10;;;;;;;22.21;76.75;100938.25;4954292;28;20183;-80
2021/06/25 02:43:32;;;;;;;32.23;13.00;;;;;;;22.79;76.99;101072.38;4954268;28;20198;-88
2021/06/25 02:45:57;;;;;;;28.50;13.00;;;;;;;22.28;77.16;100985.81;4954006;28;20210;-79
2021/06/25 02:48:23;;;;;;;31.63;13.50;;;;;;;20.38;76.90;100680.88;4954054;28;20191;-81
2021/06/25 02:50:49;;;;;;;27.97;12.37;;;;;;;22.68;77.06;101027.88;4970243;28;20168;-87
2021/06/25 02:53:14;;;;;;;30.10;13.50;;;;;;;22.86;77.07;101063.41;4954157;28;20630;-87
2021/06/25 02:55:52;;;;;;;31.47;14.70;;;;;;;23.15;77.70;101171.25;4956403;28;20189;-88
2021/06/25 02:58:21;;;;;;;31.30;14.47;;;;;;;22.94;77.96;101078.63;4961217;28;20258;-88
2021/06/25 03:00:50;;;;;;;33.90;14.67;;;;;;;20.49;77.85;100720.38;4958160;28;20210;-88
2021/06/25 03:03:16;;;;;;;39.97;15.83;;;;;;;23.21;78.41;101135.34;4957937;28;20186;-80
2021/06/25 03:05:42;;;;;;;35.20;15.23;;;;;;;20.32;77.81;100694.09;4942198;28;20270;-88
2021/06/25 03:08:08;;;;;;;41.27;15.30;;;;;;;22.24;77.91;100979.63;4973809;28;20231;-85
2021/06/25 03:10:33;;;;;;;32.37;14.93;;;;;;;23.01;78.02;101087.41;4973986;28;20226;-80
2021/06/25 03:12:59;;;;;;;29.10;14.73;;;;;;;22.29;77.92;100998.63;4957819;28;20197;-87
2021/06/25 03:15:24;;;;;;;27.10;14.83;;;;;;;19.98;78.02;100629.53;4957805;28;20191;-87
2021/06/25 03:17:50;;;;;;;28.30;14.20;;;;;;;21.40;77.78;100840.50;4957441;28;20183;-81
2021/06/25 03:20:16;;;;;;;35.13;15.27;;;;;;;22.79;78.10;101075.22;4957733;28;20697;-87
2021/06/25 03:22:42;;;;;;;30.63;14.20;;;;;;;21.62;77.46;100871.69;4973756;28;20226;-87
2021/06/25 03:25:08;;;;;;;33.47;14.80;;;;;;;21.06;77.08;100779.53;4957918;28;20190;-80
2021/06/25 03:27:34;;;;;;;34.83;14.97;;;;;;;20.52;76.58;100690.47;4973819;28;20179;-88
2021/06/25 03:30:00;;;;;;;24.57;12.27;;;;;;;21.59;76.41;100841.69;4957789;28;20171;-80
2021/06/25 03:32:25;;;;;;;27.63;12.40;;;;;;;21.33;75.95;100813.56;4973705;28;20187;-88
2021/06/25 03:34:51;;;;;;;28.87;12.40;;;;;;;22.64;75.72;101001.16;4957491;28;20191;-88
2021/06/25 03:37:17;;;;;;;24.73;12.20;;;;;;;20.22;75.41;100642.06;4957398;28;20179;-81
2021/06/25 03:39:42;;;;;;;28.83;12.53;;;;;;;23.67;76.25;101195.19;4957089;28;20215;-88
2021/06/25 03:42:08;;;;;;;33.80;13.20;;;;;;;21.09;75.69;100753.16;4957497;28;20205;-80
2021/06/25 03:44:33;;;;;;;31.33;12.47;;;;;;;22.79;75.71;100991.22;4957506;28;20210;-88
2021/06/25 03:46:59;;;;;;;31.87;13.03;;;;;;;22.06;75.55;100891.75;4957319;28;20179;-87
2021/06/25 03:49:24;;;;;;;31.07;12.93;;;;;;;23.90;75.13;101202.47;4989589;28;20180;-80
2021/06/25 03:51:50;;;;;;;29.73;14.10;;;;;;;22.09;75.79;100924.59;4956985;28;20635;-78
2021/06/25 03:54:16;;;;;;;34.33;13.60;;;;;;;23.36;74.55;101048.25;4957105;28;20255;-85
2021/06/25 03:56:41;;;;;;;31.37;11.87;;;;;;;21.58;72.95;100708.34;4957029;28;20163;-77
2021/06/25 03:59:07;;;;;;;28.97;11.97;;;;;;;22.50;72.30;100847.56;4956989;28;20772;-85
2021/06/25 04:01:32;;;;;;;24.63;12.07;;;;;;;22.95;72.26;100869.00;4956662;28;20187;-86
2021/06/25 04:03:58;;;;;;;29.03;13.20;;;;;;;24.51;72.25;101124.00;4956980;28;20568;-77
2021/06/25 04:06:23;;;;;;;19.87;12.83;;;;;;;23.75;73.14;100981.16;4955964;28;20203;-85
2021/06/25 04:08:50;;;;;;;19.70;10.80;;;;;;;24.70;72.58;101129.94;4956752;28;20202;-77
2021/06/25 04:11:17;;;;;;;27.40;11.17;;;;;;;22.79;69.86;100878.22;4973021;28;20247;-86
2021/06/25 04:13:43;;;;;;;25.53;10.97;;;;;;;24.29;70.05;101067.38;4988493;28;20183;-79
2021/06/25 04:16:08;;;;;;;29.33;10.43;;;;;;;22.82;70.51;100896.94;4972559;28;20177;-82
2021/06/25 04:18:34;;;;;;;30.97;11.50;;;;;;;21.09;70.18;100621.50;4956191;28;20305;-86
2021/06/25 04:21:00;;;;;;;23.77;10.43;;;;;;;23.22;69.87;101054.09;4972612;28;20206;-85
2021/06/25 04:23:25;;;;;;;26.23;12.47;;;;;;;20.87;71.18;100736.06;4971961;28;20190;-77
2021/06/25 04:25:51;;;;;;;26.87;11.30;;;;;;;23.14;71.19;101065.09;4972377;28;20270;-85
2021/06/25 04:28:17;;;;;;;25.87;10.53;;;;;;;22.75;69.06;101013.28;4956171;28;20183;-78
2021/06/25 04:30:43;;;;;;;26.00;10.63;;;;;;;20.88;69.65;100743.25;4972204;28;20195;-77
2021/06/25 04:33:11;;;;;;;27.53;10.33;;;;;;;21.44;69.73;100841.06;4956281;28;20171;-85
2021/06/25 04:35:37;;;;;;;25.53;11.87;;;;;;;21.95;69.26;100823.97;4956427;28;20187;-77
2021/06/25 04:38:03;;;;;;;26.27;10.53;;;;;;;23.93;68.19;101139.19;4955876;28;20210;-85
2021/06/25 04:40:30;;;;;;;28.77;11.13;;;;;;;23.30;66.88;101004.25;4956329;28;20274;-78
2021/06/25 04:42:55;;;;;;;25.23;10.33;;;;;;;24.40;67.88;101132.53;4972173;28;20687;-78
2021/06/25 04:45:21;;;;;;;28.07;11.87;;;;;;;23.70;69.52;100992.47;4954940;28;20202;-85
2021/06/25 04:47:46;;;;;;;29.63;12.00;;;;;;;23.43;69.67;100914.03;4970960;28;20182;-85
2021/06/25 04:50:12;;;;;;;26.00;12.23;;;;;;;24.38;69.47;101063.50;4954736;28;20183;-78
2021/06/25 04:52:39;;;;;;;27.20;11.83;;;;;;;21.75;68.16;100641.53;4954493;28;20359;-86
2021/06/25 04:55:06;;;;;;;35.80;11.83;;;;;;;25.18;67.10;101161.53;4970735;28;20202;-85
2021/06/25 04:57:31;;;;;;;25.10;11.10;;;;;;;25.16;66.94;101138.56;4971254;28;20199;-87
2021/06/25 04:59:57;;;;;;;26.47;11.17;;;;;;;23.53;67.15;100882.13;4954896;28;20574;-79
2021/06/25 05:02:22;;;;;;;38.90;10.90;;;;;;;25.42;67.36;101165.34;4954782;28;20183;-85
2021/06/25 05:04:48;;;;;;;27.70;9.87;;;;;;;24.64;67.25;101013.78;4955123;28;20202;-85
2021/06/25 05:07:24;;;;;;;27.03;8.67;;;;;;;25.56;64.28;101129.41;4954807;28;20179;-85
2021/06/25 05:09:50;;;;;;;23.03;8.27;;;;;;;22.59;62.74;100685.56;4972495;28;20196;-85
2021/06/25 05:12:15;;;;;;;30.17;8.60;;;;;;;23.98;63.37;100911.94;4955020;28;20219;-81
2021/06/25 05:14:41;;;;;;;23.90;8.33;;;;;;;23.42;65.54;100842.56;4971806;28;20184;-89
2021/06/25 05:17:07;;;;;;;26.93;8.60;;;;;;;24.83;64.96;101051.56;4955757;28;20712;-88
2021/06/25 05:19:32;;;;;;;22.03;9.10;;;;;;;21.54;63.76;100495.59;4970893;28;20235;-90
2021/06/25 05:21:58;;;;;;;22.63;8.97;;;;;;;21.59;62.62;100472.28;4971357;28;20235;-90
2021/06/25 05:24:24;;;;;;;27.57;8.77;;;;;;;23.74;62.67;100807.00;4971409;28;20206;-89
2021/06/25 05:26:49;;;;;;;24.40;8.37;;;;;;;23.67;62.61;100750.94;4955249;28;20210;-89
2021/06/25 05:29:15;;;;;;;26.33;8.47;;;;;;;23.71;64.53;100801.59;4955632;28;20175;-89
2021/06/25 05:31:41;;;;;;;25.03;8.17;;;;;;;23.40;63.71;100731.22;4955357;28;20174;-89
2021/06/25 05:34:06;;;;;;;24.17;8.10;;;;;;;23.88;63.15;100783.28;4955392;28;20186;-89
2021/06/25 05:36:32;;;;;;;27.30;8.53;;;;;;;25.51;62.79;101062.88;4954767;28;20238;-90
2021/06/25 05:38:57;;;;;;;29.90;8.23;;;;;;;25.78;62.17;101061.91;4971321;28;20229;-90
2021/06/25 05:41:23;;;;;;;29.13;9.53;;;;;;;25.42;61.28;100983.75;4970927;28;20175;-89
2021/06/25 05:43:48;;;;;;;25.37;8.80;;;;;;;25.69;61.63;101011.13;4971548;28;20183;-90
2021/06/25 05:46:14;;;;;;;33.50;9.57;;;;;;;23.92;62.67;100755.53;4970889;28;20179;-89
2021/06/25 05:48:40;;;;;;;25.43;8.80;;;;;;;24.56;61.86;100807.97;4954077;28;20179;-89
2021/06/25 05:51:06;;;;;;;26.83;10.07;;;;;;;25.46;62.50;100940.91;4969860;28;20281;-89
2021/06/25 05:53:32;;;;;;;28.70;9.73;;;;;;;25.31;63.27;100940.50;4953964;28;20182;-90
2021/06/25 05:55:58;;;;;;;27.57;10.27;;;;;;;26.27;62.87;101089.19;4938084;28;20274;-89
2021/06/25 05:58:24;;;;;;;29.67;12.50;;;;;;;23.81;62.88;100692.50;4954492;28;20199;-89
2021/06/25 06:00:50;;;;;;;29.33;9.13;;;;;;;25.42;62.59;100915.66;4938028;28;20198;-89
2021/06/25 06:03:15;;;;;;;25.27;7.90;;;;;;;25.25;60.71;100843.28;4969988;28;20190;-90
2021/06/25 06:05:42;;;;;;;23.43;8.40;;;;;;;27.74;61.08;101233.22;4953263;28;20185;-90
2021/06/25 06:08:08;;;;;;;27.70;8.73;;;;;;;26.12;60.59;100932.56;4953369;28;20195;-89
2021/06/25 06:10:33;;;;;;;26.80;8.37;;;;;;;25.60;60.00;100851.78;4969312;28;20188;-89
2021/06/25 06:12:59;;;;;;;25.57;9.07;;;;;;;25.09;58.72;100754.25;4969121;28;20203;-89
2021/06/25 06:15:25;;;;;;;29.67;9.67;;;;;;;25.09;59.20;100762.75;4969533;28;20193;-86
2021/06/25 06:17:50;;;;;;;23.17;9.07;;;;;;;27.09;59.38;101039.22;4953577;28;20182;-89
2021/06/25 06:20:24;;;;;;;27.60;9.60;;;;;;;28.27;59.91;101231.50;4953767;28;20293;-89
2021/06/25 06:31:17;;;;;;;24.48;8.77;;;;;;;28.30;58.21;101142.81;4972125;28;20263;-90
2021/06/25 06:36:34;;;;;;;22.10;8.30;;;;;;;28.67;57.74;101165.53;4969975;28;20178;-90
2021/06/25 06:39:03;;;;;;;28.95;8.60;;;;;;;28.49;58.16;101126.44;4972426;28;20203;-82
2021/06/25 06:46:05;;;;;;;20.52;7.43;;;;;;;29.16;56.96;101186.69;5079036;28;20307;-80
2021/06/25 06:48:30;;;;;;;29.35;8.25;;;;;;;26.66;57.75;100873.53;5081966;28;20172;-82
2021/06/25 06:50:56;;;;;;;26.05;7.20;;;;;;;28.40;54.84;101128.97;5048576;28;20167;-79
2021/06/25 06:53:21;;;;;;;23.65;7.78;;;;;;;28.19;54.52;101057.50;5065008;28;20192;-86
2021/06/25 06:55:47;;;;;;;18.67;7.70;;;;;;;28.64;54.40;101106.75;5048360;28;20172;-86
2021/06/25 06:58:12;;;;;;;26.23;7.20;;;;;;;29.00;53.48;101142.13;5064903;28;20183;-79
2021/06/25 07:00:39;;;;;;;22.73;7.53;;;;;;;28.53;54.12;101074.81;5064715;28;20627;-87
2021/06/25 07:03:04;;;;;;;24.05;8.27;;;;;;;29.28;56.84;101179.44;5048212;28;20237;-87
2021/06/25 07:05:30;;;;;;;26.40;8.32;;;;;;;28.99;55.70;101114.91;5048076;28;20172;-79
2021/06/25 07:07:55;;;;;;;22.45;7.53;;;;;;;29.27;54.15;101091.50;5065436;28;20172;-87
2021/06/25 07:10:27;;;;;;;25.42;7.97;;;;;;;26.49;54.75;100650.53;5048369;28;20188;-87
2021/06/25 07:12:55;;;;;;;22.45;7.32;;;;;;;28.58;52.69;100943.53;5064554;28;20281;-86
2021/06/25 07:15:22;;;;;;;23.45;6.50;;;;;;;29.43;50.97;101090.38;5047434;28;20184;-87
2021/06/25 07:17:47;;;;;;;26.48;7.25;;;;;;;30.00;49.60;101152.19;5047047;28;20207;-79
2021/06/25 07:20:13;;;;;;;20.63;6.30;;;;;;;27.11;48.75;100674.53;5063933;28;20176;-80
2021/06/25 07:22:38;;;;;;;20.65;6.22;;;;;;;27.44;49.73;100710.91;5047053;28;20204;-88
2021/06/25 07:25:04;;;;;;;21.20;5.97;;;;;;;27.04;50.87;100661.75;5047319;28;20191;-87
2021/06/25 07:27:30;;;;;;;26.17;6.65;;;;;;;29.81;48.99;101068.75;5063111;28;20258;-80
2021/06/25 07:29:55;;;;;;;21.38;6.20;;;;;;;29.96;46.37;101057.47;5046683;28;20187;-89
2021/06/25 07:32:21;;;;;;;20.63;6.35;;;;;;;27.77;46.37;100710.22;5046508;28;20179;-79
2021/06/25 07:34:47;;;;;;;24.10;6.20;;;;;;;27.56;46.20;100658.91;5046545;28;20191;-90
2021/06/25 07:37:12;;;;;;;20.50;6.07;;;;;;;27.95;46.65;100710.13;5047162;28;20195;-89
2021/06/25 07:39:38;;;;;;;23.63;6.25;;;;;;;28.56;48.30;100800.75;5063897;28;20651;-88
2021/06/25 07:42:04;;;;;;;18.15;5.78;;;;;;;30.11;47.78;101032.69;5046728;28;20195;-82
2021/06/25 07:44:29;;;;;;;20.45;6.38;;;;;;;31.38;47.92;101163.72;5063247;28;20270;-89
2021/06/25 07:46:55;;;;;;;22.50;6.60;;;;;;;31.06;47.69;101109.66;5047315;28;20176;-80
2021/06/25 07:49:21;;;;;;;25.05;6.22;;;;;;;31.37;48.15;101147.88;5063890;28;20202;-89
2021/06/25 07:51:46;;;;;;;27.88;6.93;;;;;;;30.97;48.05;101104.47;5047093;28;20180;-89
2021/06/25 07:54:12;;;;;;;22.88;6.55;;;;;;;31.63;47.50;101159.81;5049739;28;20179;-90
2021/06/25 07:56:37;;;;;;;22.52;6.50;;;;;;;28.77;46.77;100715.97;5034241;28;20206;-89
2021/06/25 07:59:03;;;;;;;22.30;6.63;;;;;;;29.81;46.15;100865.91;5034966;28;20197;-89
2021/06/25 08:01:29;;;;;;;20.85;6.88;;;;;;;31.62;44.00;101106.72;5050899;28;20581;-81
2021/06/25 08:03:54;;;;;;;24.70;6.88;;;;;;;31.69;44.96;101096.63;5034141;28;20203;-80
2021/06/25 08:06:20;;;;;;;27.45;6.78;;;;;;;28.98;43.75;100674.00;5051660;28;20176;-89
2021/06/25 08:08:45;;;;;;;26.50;6.60;;;;;;;30.52;45.38;100918.22;5036709;28;20184;-89
2021/06/25 08:11:11;;;;;;;32.13;7.28;;;;;;;29.01;45.95;100703.50;5050446;28;20176;-89
2021/06/25 08:13:36;;;;;;;27.75;7.13;;;;;;;31.90;46.43;101095.19;5035442;28;20169;-80
2021/06/25 08:16:02;;;;;;;23.13;6.80;;;;;;;31.68;46.94;101072.91;5034177;28;20203;-90
2021/06/25 08:18:31;;;;;;;23.05;6.18;;;;;;;30.40;46.31;100876.22;5035393;28;20612;-89
2021/06/25 08:20:57;;;;;;;27.98;6.93;;;;;;;30.18;44.94;100799.66;5035196;28;20220;-81
2021/06/25 08:23:22;;;;;;;24.13;6.85;;;;;;;30.37;44.56;100829.50;5033175;28;20258;-88
2021/06/25 08:25:48;;;;;;;22.70;6.72;;;;;;;29.75;44.97;100734.69;5050248;28;20573;-89
2021/06/25 08:28:16;;;;;;;26.33;7.25;;;;;;;30.43;45.43;100832.19;5050717;28;20195;-89
2021/06/25 08:30:41;;;;;;;20.50;6.40;;;;;;;29.40;44.79;100646.09;5050587;28;20169;-89
2021/06/25 08:33:07;;;;;;;19.17;6.35;;;;;;;31.28;44.19;100917.19;5033803;28;20171;-89
2021/06/25 08:35:33;;;;;;;19.13;5.63;;;;;;;32.72;44.66;101083.00;5033657;28;20184;-89
2021/06/25 08:37:58;;;;;;;21.05;6.45;;;;;;;31.32;45.20;100879.63;5050053;28;20172;-80
2021/06/25 08:40:24;;;;;;;16.33;6.40;;;;;;;31.23;44.31;100849.41;5050135;28;20171;-89
2021/06/25 08:42:52;;;;;;;19.75;6.43;;;;;;;31.10;44.49;100795.19;5033041;28;20258;-88
2021/06/25 08:45:18;;;;;;;21.60;6.15;;;;;;;30.65;43.90;100746.44;5046439;28;20232;-89
2021/06/25 08:47:47;;;;;;;16.65;6.82;;;;;;;33.20;43.87;101116.19;5013188;28;20272;-80
2021/06/25 08:50:14;;;;;;;22.00;6.20;;;;;;;32.32;43.93;100938.66;5030124;28;20165;-90
2021/06/25 08:52:56;;;;;;;23.63;6.72;;;;;;;29.93;44.72;100549.97;5029642;28;20187;-89
2021/06/25 08:55:21;;;;;;;20.15;6.40;;;;;;;31.54;43.99;100805.16;5030624;28;20192;-89
2021/06/25 08:57:47;;;;;;;23.48;5.93;;;;;;;31.64;43.61;100840.44;5029840;28;20166;-83
2021/06/25 09:00:17;;;;;;;25.50;7.10;;;;;;;31.02;44.23;100747.88;5013359;28;20208;-80
2021/06/25 09:02:44;;;;;;;25.15;6.25;;;;;;;32.16;43.75;100913.41;5046107;28;20196;-80
2021/06/25 09:05:28;;;;;;;29.15;6.80;;;;;;;33.48;44.24;101124.53;5028844;28;20188;-80
2021/06/25 09:07:56;;;;;;;23.88;6.28;;;;;;;32.19;39.13;100955.28;5012782;28;20256;-88
2021/06/25 09:10:35;;;;;;;30.77;5.70;;;;;;;31.42;39.73;100806.88;5029904;28;20173;-88
2021/06/25 09:13:06;;;;;;;29.55;5.93;;;;;;;30.60;39.85;100675.16;5013871;28;20176;-87
2021/06/25 09:15:32;;;;;;;28.02;5.35;;;;;;;32.81;38.42;100978.34;5029999;28;20177;-88
2021/06/25 09:18:04;;;;;;;22.52;5.47;;;;;;;33.74;39.55;101083.03;5012775;28;20184;-87
2021/06/25 09:20:40;;;;;;;28.85;5.82;;;;;;;33.91;38.17;101101.19;5013176;28;20189;-88
2021/06/25 09:23:08;;;;;;;24.08;6.53;;;;;;;31.27;39.64;100694.44;5013621;28;20185;-88
2021/06/25 09:26:06;;;;;;;21.63;5.30;;;;;;;34.33;36.68;101136.56;5012973;28;20253;-87
2021/06/25 09:28:36;;;;;;;29.70;5.70;;;;;;;34.14;38.38;101118.28;5045987;28;20173;-88
2021/06/25 09:31:12;;;;;;;27.13;5.97;;;;;;;34.41;36.02;101127.88;5029747;28;20241;-88
2021/06/25 09:33:55;;;;;;;25.85;6.28;;;;;;;34.19;35.90;101066.25;5013555;28;20185;-88
2021/06/25 09:36:23;;;;;;;30.30;6.35;;;;;;;34.53;36.56;101118.19;5030801;28;20173;-88
2021/06/25 09:38:57;;;;;;;26.92;5.35;;;;;;;34.63;37.87;101126.91;5062145;28;20215;-87
2021/06/25 09:41:23;;;;;;;22.15;6.13;;;;;;;34.46;37.07;101081.63;5029286;28;20185;-88
2021/06/25 09:44:01;;;;;;;27.35;5.82;;;;;;;34.89;38.15;101120.56;5012506;28;20185;-88
2021/06/25 09:46:31;;;;;;;26.25;6.40;;;;;;;34.95;36.63;101113.19;5008936;28;20193;-80
2021/06/25 09:48:58;;;;;;;22.35;6.13;;;;;;;34.97;38.03;101098.22;5009218;28;20190;-80
2021/06/25 09:51:24;;;;;;;27.98;6.13;;;;;;;34.98;38.08;101103.38;5008900;28;20178;-79
2021/06/25 09:54:15;;;;;;;26.73;5.57;;;;;;;34.81;34.97;101065.19;5009126;28;20584;-88
2021/06/25 09:56:46;;;;;;;28.67;6.57;;;;;;;34.64;38.03;101014.06;5025855;28;20173;-88
2021/06/25 10:00:10;;;;;;;25.10;6.15;;;;;;;35.40;37.21;101104.06;5009409;28;20220;-80
2021/06/25 10:02:19;;;;;;;27.40;5.75;;;;;;;35.45;36.54;101108.81;5025992;28;20221;-90
2021/06/25 10:04:55;;;;;;;28.08;6.03;;;;;;;35.37;36.98;101121.78;5041127;28;20189;-79
2021/06/25 10:07:25;;;;;;;23.75;6.50;;;;;;;35.24;33.87;101042.22;5026325;28;20193;-79
2021/06/25 10:09:51;;;;;;;26.77;6.25;;;;;;;34.97;34.94;100994.53;5025340;28;20166;-90
2021/06/25 10:12:18;;;;;;;21.27;5.72;;;;;;;35.78;34.36;101089.94;5009102;28;20166;-81
2021/06/25 10:14:44;;;;;;;26.52;5.70;;;;;;;35.38;34.69;101023.22;5009025;28;20178;-79
2021/06/25 10:17:11;;;;;;;24.95;5.80;;;;;;;35.51;34.69;101062.41;5008696;28;20236;-89
2021/06/25 10:19:41;;;;;;;26.13;6.35;;;;;;;35.42;35.41;101002.59;5008946;28;20257;-88
2021/06/25 10:22:08;;;;;;;29.92;6.20;;;;;;;34.79;32.57;100933.31;5008724;28;20202;-79
2021/06/25 10:24:34;;;;;;;30.67;6.35;;;;;;;35.72;34.17;101010.84;5025343;28;20178;-87
2021/06/25 10:27:01;;;;;;;26.38;5.97;;;;;;;35.76;34.56;100979.44;5008907;28;20181;-88
2021/06/25 10:29:27;;;;;;;22.80;6.32;;;;;;;35.54;33.69;100925.75;5008793;28;20182;-82
2021/06/25 10:31:52;;;;;;;25.13;6.22;;;;;;;36.33;34.23;100999.81;5025324;28;20180;-88
2021/06/25 10:34:18;;;;;;;28.42;5.90;;;;;;;35.37;33.92;100802.66;5008726;28;20591;-89
2021/06/25 10:36:43;;;;;;;33.95;6.10;;;;;;;37.38;32.69;101015.09;5008910;28;20204;-90
2021/06/25 10:39:10;;;;;;;24.67;5.57;;;;;;;35.82;31.86;100770.16;5008805;28;20189;-87
2021/06/25 10:41:55;;;;;;;32.63;6.55;;;;;;;36.34;32.29;100857.81;5025280;28;20189;-89
2021/06/25 10:44:52;;;;;;;33.85;6.70;;;;;;;37.99;30.36;101090.44;5012100;28;20224;-89
2021/06/25 10:47:27;;;;;;;36.42;6.85;;;;;;;37.82;31.28;101070.41;5028725;28;20211;-89
2021/06/25 10:50:02;;;;;;;34.45;6.40;;;;;;;37.73;32.80;101065.41;5028494;28;20580;-89
2021/06/25 10:52:41;;;;;;;26.80;6.22;;;;;;;37.61;31.68;101050.03;5046565;28;20157;-89
2021/06/25 10:55:10;;;;;;;33.70;6.50;;;;;;;37.72;32.87;101058.84;5012122;28;20185;-88
2021/06/25 10:57:48;;;;;;;37.50;6.18;;;;;;;37.63;33.28;101056.00;5045568;28;20161;-87
2021/06/25 11:00:28;;;;;;;25.67;6.00;;;;;;;37.58;32.79;101057.06;5046309;28;20623;-89
2021/06/25 11:02:53;;;;;;;31.08;6.70;;;;;;;36.87;32.15;100966.47;5029318;28;20214;-80
2021/06/25 11:05:25;;;;;;;28.17;6.00;;;;;;;37.41;32.01;101052.19;5012419;28;20184;-84
2021/06/25 11:07:51;;;;;;;28.30;5.90;;;;;;;36.85;34.18;100990.19;5046245;28;20554;-88
2021/06/25 11:10:24;;;;;;;28.60;6.65;;;;;;;36.99;35.15;101033.81;5012116;28;20188;-87
2021/06/25 11:12:51;;;;;;;28.27;6.60;;;;;;;36.60;34.01;100978.13;5029034;28;20239;-88
2021/06/25 11:15:30;;;;;;;27.92;6.68;;;;;;;36.93;34.92;101031.22;5028717;28;20193;-88
2021/06/25 11:18:00;;;;;;;32.05;6.13;;;;;;;36.70;33.32;101007.81;5028778;28;20173;-88
2021/06/25 11:20:33;;;;;;;28.77;6.25;;;;;;;36.95;36.49;101036.41;5012012;28;20644;-79
2021/06/25 11:23:09;;;;;;;24.75;6.22;;;;;;;36.54;35.03;100969.00;5028267;28;20213;-87
2021/06/25 11:25:37;;;;;;;26.77;6.28;;;;;;;36.28;34.69;100908.53;5028863;28;20168;-84
2021/06/25 11:28:36;;;;;;;28.40;6.43;;;;;;;36.24;34.35;100914.00;5013387;28;20252;-88
2021/06/25 11:31:06;;;;;;;32.10;5.88;;;;;;;36.59;33.70;100959.28;5034828;28;20165;-79